KCXO/CXO METAR and TAF weather

Enter ICAO airport designator
Station Type Date Time Source
KCXO METAR 2019/10/18 11:53 UTC NOAA

KCXO 181153Z 00000KT 10SM CLR 10/09 A2990 RMK AO2 SLP124 T01000094 10117 20089 53004


Station Type Date Time Source
KCXO Decoded METAR 2019/10/18 11:53 UTC NOAA

LONE STAR EXECUTIVE AIRPORT, TX, United States (KCXO) 30-21N 95-25W 75M
Oct 18, 2019 - 07:53 AM EDT / 2019.10.18 1153 UTC
Wind: Calm:0
Visibility: 10 mile(s):0
Sky conditions: clear
Temperature: 50.0 F (10.0 C)
Dew Point: 48.9 F (9.4 C)
Relative Humidity: 96%
Pressure (altimeter): 29.9 in. Hg (1012 hPa)
Pressure tendency: 0.01 inches (0.4 hPa) higher than three hours ago
ob: KCXO 181153Z 00000KT 10SM CLR 10/09 A2990 RMK AO2 SLP124 T01000094 10117 20089 53004
cycle: 12

Station Type Date Time Source
KCXO TAF 2019/10/18 12:30 UTC NOAA

TAF KCXO 181128Z 1812/1912 VRB03KT P6SM FEW250
FM190900 00000KT P6SM OVC250

Example: see airport list